createdAt,value
2022-10-13T00:01:57.954Z,13.31
2022-10-13T00:04:46.568Z,13.22
2022-10-13T00:07:35.244Z,13.20
2022-10-13T00:10:23.911Z,13.34
2022-10-13T00:13:14.388Z,13.18
2022-10-13T00:16:04.074Z,13.12
2022-10-13T00:18:53.053Z,12.35
2022-10-13T00:21:41.890Z,13.02
2022-10-13T00:24:30.529Z,13.13
2022-10-13T00:27:19.233Z,13.00
2022-10-13T00:30:10.169Z,12.98
2022-10-13T00:32:58.841Z,12.90
2022-10-13T00:35:49.938Z,12.71
2022-10-13T00:38:38.840Z,12.79
2022-10-13T00:41:27.566Z,12.79
2022-10-13T00:44:53.178Z,12.79
2022-10-13T00:47:46.367Z,12.79
2022-10-13T00:50:39.554Z,12.69
2022-10-13T00:53:32.962Z,12.75
2022-10-13T00:56:24.891Z,12.70
2022-10-13T00:59:23.310Z,12.68
2022-10-13T01:02:12.240Z,12.66
2022-10-13T01:05:02.523Z,12.71
2022-10-13T01:07:51.592Z,12.63
2022-10-13T01:10:50.758Z,11.97
2022-10-13T01:13:44.185Z,12.58
2022-10-13T01:16:41.053Z,12.50
2022-10-13T01:20:07.918Z,12.43
2022-10-13T01:23:08.182Z,11.54
2022-10-13T01:26:24.614Z,12.41
2022-10-13T01:29:25.887Z,12.26
2022-10-13T01:32:22.525Z,12.37
2022-10-13T01:35:14.462Z,12.20
2022-10-13T01:38:09.153Z,11.98
2022-10-13T01:41:04.198Z,12.24
2022-10-13T01:43:59.376Z,12.21
2022-10-13T01:46:51.532Z,12.04
2022-10-13T01:49:42.352Z,12.08
2022-10-13T01:52:36.606Z,11.82
2022-10-13T01:55:25.412Z,12.25
2022-10-13T01:58:14.054Z,12.12
2022-10-13T02:01:16.027Z,12.03
2022-10-13T02:04:19.036Z,12.02
2022-10-13T02:07:18.393Z,11.95
2022-10-13T02:10:15.031Z,12.04
2022-10-13T02:13:07.492Z,12.06
2022-10-13T02:15:59.723Z,11.84
2022-10-13T02:18:49.011Z,11.92
2022-10-13T02:21:37.914Z,11.78
2022-10-13T02:24:28.154Z,12.01
2022-10-13T02:27:17.127Z,11.77
2022-10-13T02:30:06.838Z,11.67
2022-10-13T02:32:55.452Z,11.50
2022-10-13T02:35:44.973Z,11.79
2022-10-13T02:38:33.583Z,11.60
2022-10-13T02:41:23.641Z,11.73
2022-10-13T02:44:12.278Z,11.50
2022-10-13T02:47:01.262Z,11.46
2022-10-13T02:49:49.853Z,11.71
2022-10-13T02:52:38.594Z,10.94
2022-10-13T02:55:27.195Z,11.79
2022-10-13T02:58:17.304Z,11.80
2022-10-13T03:01:10.256Z,11.70
2022-10-13T03:03:58.833Z,11.58
2022-10-13T03:06:47.458Z,11.71
2022-10-13T03:09:36.246Z,11.66
2022-10-13T03:12:24.896Z,11.57
2022-10-13T03:15:15.164Z,11.45
2022-10-13T03:18:03.824Z,11.27
2022-10-13T03:20:59.246Z,11.38
2022-10-13T03:23:47.899Z,11.44
2022-10-13T03:26:36.548Z,11.48
2022-10-13T03:29:25.211Z,11.49
2022-10-13T03:32:15.294Z,11.39
2022-10-13T03:35:03.929Z,11.27
2022-10-13T03:37:52.581Z,11.31
2022-10-13T03:40:41.198Z,11.23
2022-10-13T03:43:29.899Z,11.20
2022-10-13T03:46:19.339Z,10.23
2022-10-13T03:49:10.424Z,11.16
2022-10-13T03:51:59.005Z,11.18
2022-10-13T03:54:47.713Z,11.04
2022-10-13T03:57:36.372Z,11.15
2022-10-13T04:00:25.035Z,11.17
2022-10-13T04:03:13.999Z,11.18
2022-10-13T04:06:05.300Z,11.08
2022-10-13T04:08:54.145Z,10.95
2022-10-13T04:11:42.918Z,11.17
2022-10-13T04:14:31.629Z,11.11
2022-10-13T04:17:20.228Z,11.05
2022-10-13T04:20:10.194Z,11.08
2022-10-13T04:23:00.225Z,11.03
2022-10-13T04:25:48.919Z,10.99
2022-10-13T04:28:37.701Z,10.91
2022-10-13T04:31:27.388Z,10.95
2022-10-13T04:34:16.183Z,10.88
2022-10-13T04:37:04.788Z,10.99
2022-10-13T04:39:54.842Z,10.94
2022-10-13T04:42:43.438Z,11.05
2022-10-13T04:45:32.113Z,10.96
2022-10-13T04:48:20.687Z,10.72
2022-10-13T04:51:11.564Z,10.97
2022-10-13T04:54:02.285Z,10.99
2022-10-13T04:56:52.378Z,10.64
2022-10-13T04:59:40.980Z,10.77
2022-10-13T05:02:29.608Z,10.86
2022-10-13T05:05:18.372Z,10.79
2022-10-13T05:08:07.495Z,10.11
2022-10-13T05:10:57.947Z,10.72
2022-10-13T05:13:48.355Z,10.78
2022-10-13T05:16:37.025Z,10.93
2022-10-13T05:19:25.646Z,10.91
2022-10-13T05:22:14.325Z,9.99
2022-10-13T05:25:02.995Z,10.69
2022-10-13T05:27:51.658Z,10.33
2022-10-13T05:30:41.665Z,10.62
2022-10-13T05:33:30.319Z,10.67
2022-10-13T05:36:21.316Z,10.68
2022-10-13T05:39:11.463Z,10.86
2022-10-13T05:42:00.008Z,10.92
2022-10-13T05:44:48.677Z,10.88
2022-10-13T05:47:38.714Z,10.77
2022-10-13T05:50:27.504Z,10.90
2022-10-13T05:53:16.233Z,10.98
2022-10-13T05:56:09.664Z,11.06
2022-10-13T05:59:03.159Z,11.11
2022-10-13T06:01:53.149Z,11.23
2022-10-13T06:04:47.161Z,11.32
2022-10-13T06:07:36.107Z,11.35
2022-10-13T06:10:25.014Z,11.23
2022-10-13T06:13:13.653Z,11.51
2022-10-13T06:16:02.420Z,11.49
2022-10-13T06:18:50.993Z,11.37
2022-10-13T06:21:41.029Z,10.98
2022-10-13T06:24:29.803Z,11.58
2022-10-13T06:27:18.460Z,11.60
2022-10-13T06:30:08.125Z,11.83
2022-10-13T06:32:57.113Z,11.85
2022-10-13T06:35:45.769Z,12.10
2022-10-13T06:38:35.924Z,12.28
2022-10-13T06:41:24.605Z,12.48
2022-10-13T06:44:13.410Z,12.51
2022-10-13T06:47:03.261Z,12.73
2022-10-13T06:49:51.909Z,12.86
2022-10-13T06:52:40.565Z,12.99
2022-10-13T06:55:30.656Z,13.16
2022-10-13T06:58:19.284Z,13.28
2022-10-13T07:01:08.270Z,12.62
2022-10-13T07:03:56.950Z,13.40
2022-10-13T07:06:45.594Z,13.46
2022-10-13T07:09:34.217Z,13.35
2022-10-13T07:12:24.324Z,13.40
2022-10-13T07:15:13.044Z,13.81
2022-10-13T07:18:01.642Z,13.91
2022-10-13T07:20:50.306Z,13.83
2022-10-13T07:23:38.933Z,13.76
2022-10-13T07:26:27.614Z,13.74
2022-10-13T07:29:18.676Z,13.95
2022-10-13T07:32:08.213Z,14.12
2022-10-13T07:34:56.838Z,14.21
2022-10-13T07:37:45.458Z,14.23
2022-10-13T07:40:34.127Z,14.36
2022-10-13T07:43:22.824Z,14.40
2022-10-13T07:46:14.847Z,14.21
2022-10-13T07:49:03.523Z,14.35
2022-10-13T07:51:52.223Z,14.18
2022-10-13T07:54:40.894Z,14.47
2022-10-13T07:57:29.709Z,14.72
2022-10-13T08:00:19.008Z,14.93
2022-10-13T08:03:09.269Z,14.84
2022-10-13T08:06:00.197Z,15.07
2022-10-13T08:08:48.844Z,15.13
2022-10-13T08:11:37.658Z,15.27
2022-10-13T08:14:26.412Z,15.25
2022-10-13T08:17:15.048Z,15.42
2022-10-13T08:20:07.161Z,15.53
2022-10-13T08:22:55.894Z,15.71
2022-10-13T08:25:45.345Z,15.45
2022-10-13T08:28:34.208Z,15.93
2022-10-13T08:31:23.276Z,15.84
2022-10-13T08:34:12.945Z,15.73
2022-10-13T08:37:03.134Z,15.34
2022-10-13T08:39:51.774Z,15.39
2022-10-13T08:42:44.902Z,15.47
2022-10-13T08:45:41.378Z,15.42
2022-10-13T08:48:34.230Z,15.29
2022-10-13T08:51:23.053Z,15.74
2022-10-13T08:54:16.919Z,15.87
2022-10-13T08:57:06.778Z,16.14
2022-10-13T08:59:55.839Z,16.24
2022-10-13T09:02:44.969Z,15.78
2022-10-13T09:05:42.653Z,16.55
2022-10-13T09:08:41.525Z,16.77
2022-10-13T09:11:34.198Z,16.85
2022-10-13T09:14:26.235Z,16.87
2022-10-13T09:17:18.525Z,16.90
2022-10-13T09:20:17.492Z,17.10
2022-10-13T09:23:07.802Z,17.36
2022-10-13T09:25:58.818Z,16.75
2022-10-13T09:28:49.199Z,16.96
2022-10-13T09:31:38.577Z,16.84
2022-10-13T09:34:28.983Z,17.25
2022-10-13T09:37:22.998Z,17.16
2022-10-13T09:40:20.948Z,17.10
2022-10-13T09:43:27.253Z,17.39
2022-10-13T09:46:25.675Z,17.51
2022-10-13T09:49:31.363Z,17.51
2022-10-13T09:52:25.365Z,17.46
2022-10-13T09:55:32.627Z,17.60
2022-10-13T09:58:27.785Z,17.65
2022-10-13T10:01:24.458Z,17.75
2022-10-13T10:04:18.053Z,17.43
2022-10-13T10:07:13.655Z,17.85
2022-10-13T10:10:06.364Z,17.78
2022-10-13T10:12:55.823Z,17.85
2022-10-13T10:15:57.214Z,17.75
2022-10-13T10:18:55.024Z,17.76
2022-10-13T10:21:51.514Z,17.91
2022-10-13T10:24:49.839Z,18.09
2022-10-13T10:27:44.115Z,17.85
2022-10-13T10:30:35.792Z,18.05
2022-10-13T10:33:40.438Z,17.93
2022-10-13T10:36:38.749Z,18.32
2022-10-13T10:39:33.278Z,18.33
2022-10-13T10:42:40.276Z,17.98
2022-10-13T10:45:32.615Z,18.64
2022-10-13T10:48:24.882Z,18.78
2022-10-13T10:51:14.609Z,18.85
2022-10-13T10:54:18.892Z,18.43
2022-10-13T10:57:16.539Z,18.88
2022-10-13T11:00:07.868Z,18.71
2022-10-13T11:03:05.074Z,18.35
2022-10-13T11:06:03.088Z,18.39
2022-10-13T11:08:52.360Z,18.56
2022-10-13T11:11:43.817Z,18.80
2022-10-13T11:14:32.824Z,18.94
2022-10-13T11:17:29.877Z,19.05
2022-10-13T11:20:59.467Z,19.28
2022-10-13T11:23:49.766Z,19.49
2022-10-13T11:26:45.654Z,19.61
2022-10-13T11:29:56.793Z,19.69
2022-10-13T11:32:56.558Z,19.84
2022-10-13T11:35:45.195Z,19.92
2022-10-13T11:38:38.882Z,20.17
2022-10-13T11:41:34.373Z,20.18
2022-10-13T11:44:32.212Z,20.16
2022-10-13T11:47:44.118Z,20.24
2022-10-13T11:50:41.881Z,20.32
2022-10-13T11:53:41.924Z,20.32
2022-10-13T11:56:39.504Z,20.47
2022-10-13T11:59:32.747Z,20.21
2022-10-13T12:02:23.406Z,20.14
2022-10-13T12:05:22.744Z,20.28
2022-10-13T12:08:11.768Z,20.46
2022-10-13T12:11:04.795Z,20.39
2022-10-13T12:13:54.283Z,20.42
2022-10-13T12:19:45.175Z,21.09
2022-10-13T12:22:36.813Z,21.45
2022-10-13T12:25:31.509Z,21.78
2022-10-13T12:28:21.120Z,21.39
2022-10-13T12:31:20.959Z,20.97
2022-10-13T12:34:20.987Z,21.15
2022-10-13T12:37:19.939Z,21.61
2022-10-13T12:40:14.919Z,21.98
2022-10-13T12:43:05.809Z,22.23
2022-10-13T12:45:54.497Z,22.07
2022-10-13T12:48:44.968Z,21.57
2022-10-13T12:51:37.801Z,21.68
2022-10-13T12:54:30.344Z,21.61
2022-10-13T12:57:22.152Z,21.70
2022-10-13T13:00:23.128Z,21.99
2022-10-13T13:03:24.595Z,22.13
2022-10-13T13:06:27.948Z,22.54
2022-10-13T13:09:24.137Z,22.67
2022-10-13T13:12:29.318Z,23.04
2022-10-13T13:15:33.084Z,22.91
2022-10-13T13:18:41.844Z,23.41
2022-10-13T13:21:30.709Z,23.35
2022-10-13T13:24:28.804Z,22.34
2022-10-13T13:27:36.869Z,23.23
2022-10-13T13:30:25.831Z,23.55
2022-10-13T13:33:14.520Z,23.78
2022-10-13T13:36:03.229Z,23.90
2022-10-13T13:38:52.638Z,23.99
2022-10-13T13:41:41.315Z,24.10
2022-10-13T13:44:31.365Z,24.22
2022-10-13T13:47:22.627Z,24.74
2022-10-13T13:50:17.714Z,24.84
2022-10-13T13:53:06.967Z,25.39
2022-10-13T13:55:55.716Z,26.26
2022-10-13T13:58:45.037Z,26.93
2022-10-13T14:01:35.337Z,27.89
2022-10-13T14:04:24.169Z,27.58
2022-10-13T14:07:13.165Z,27.16
2022-10-13T14:10:02.476Z,26.78
2022-10-13T14:12:51.734Z,26.95
2022-10-13T14:15:40.527Z,27.83
2022-10-13T14:18:31.663Z,28.97
2022-10-13T14:21:20.368Z,29.62
2022-10-13T14:24:11.590Z,30.23
2022-10-13T14:27:00.298Z,28.98
2022-10-13T14:29:48.971Z,28.35
2022-10-13T14:32:38.538Z,27.85
2022-10-13T14:35:29.453Z,27.10
2022-10-13T14:38:18.098Z,26.33
2022-10-13T14:41:07.850Z,25.33
2022-10-13T14:43:57.044Z,24.66
2022-10-13T14:46:45.664Z,23.90
2022-10-13T14:49:34.267Z,23.48
2022-10-13T14:52:24.738Z,22.79
2022-10-13T14:55:13.464Z,21.78
2022-10-13T14:58:02.923Z,21.70
2022-10-13T15:00:52.157Z,21.26
2022-10-13T15:03:40.851Z,21.10
2022-10-13T15:06:29.864Z,20.73
2022-10-13T15:09:23.031Z,20.64
2022-10-13T15:12:18.084Z,20.54
2022-10-13T15:15:07.752Z,20.13
2022-10-13T15:17:56.454Z,20.00
2022-10-13T15:20:47.764Z,19.75
2022-10-13T15:23:36.488Z,19.70
2022-10-13T15:26:26.513Z,19.51
2022-10-13T15:29:15.147Z,19.23
2022-10-13T15:32:10.118Z,19.07
2022-10-13T15:34:58.734Z,18.87
2022-10-13T15:37:47.374Z,18.71
2022-10-13T15:40:36.218Z,18.44
2022-10-13T15:43:26.287Z,18.27
2022-10-13T15:46:21.566Z,18.01
2022-10-13T15:49:10.370Z,17.76
2022-10-13T15:51:59.046Z,17.65
2022-10-13T15:54:51.558Z,17.52
2022-10-13T15:57:40.319Z,17.36
2022-10-13T16:00:30.550Z,17.35
2022-10-13T16:03:19.912Z,17.29
2022-10-13T16:06:10.419Z,17.18
2022-10-13T16:08:59.321Z,17.04
2022-10-13T16:11:47.883Z,16.91
2022-10-13T16:14:36.696Z,16.82
2022-10-13T16:17:26.837Z,16.77
2022-10-13T16:20:15.682Z,16.54
2022-10-13T16:23:04.348Z,16.52
2022-10-13T16:25:53.373Z,16.52
2022-10-13T16:28:42.091Z,16.52
2022-10-13T16:31:31.025Z,16.32
2022-10-13T16:34:23.568Z,15.96
2022-10-13T16:37:12.439Z,16.29
2022-10-13T16:40:01.157Z,16.17
2022-10-13T16:42:49.733Z,16.08
2022-10-13T16:45:58.572Z,16.11
2022-10-13T16:48:47.998Z,16.08
2022-10-13T16:51:38.193Z,16.06
2022-10-13T16:54:26.898Z,16.14
2022-10-13T16:57:15.646Z,16.12
2022-10-13T17:00:04.854Z,16.06
2022-10-13T17:02:53.598Z,16.11
2022-10-13T17:05:42.225Z,16.03
2022-10-13T17:08:33.185Z,15.87
2022-10-13T17:11:24.527Z,15.78
2022-10-13T17:14:13.877Z,15.75
2022-10-13T17:17:04.024Z,15.68
2022-10-13T17:19:53.149Z,15.64
2022-10-13T17:22:42.741Z,15.66
2022-10-13T17:25:35.753Z,15.62
2022-10-13T17:28:25.964Z,14.78
2022-10-13T17:31:18.339Z,15.57
2022-10-13T17:34:09.420Z,15.50
2022-10-13T17:36:59.450Z,15.57
2022-10-13T17:39:49.248Z,15.49
2022-10-13T17:42:42.008Z,14.94
2022-10-13T17:45:34.692Z,15.33
2022-10-13T17:48:24.253Z,15.33
2022-10-13T17:51:19.517Z,14.94
2022-10-13T17:54:15.308Z,15.28
2022-10-13T17:57:06.128Z,15.09
2022-10-13T17:59:56.996Z,15.16
2022-10-13T18:02:46.497Z,15.24
2022-10-13T18:05:37.253Z,15.10
2022-10-13T18:08:27.584Z,15.14
2022-10-13T18:11:18.667Z,15.24
2022-10-13T18:14:09.567Z,15.21
2022-10-13T18:17:06.313Z,15.00
2022-10-13T18:19:55.748Z,15.16
2022-10-13T18:22:45.834Z,14.43
2022-10-13T18:25:39.225Z,15.21
2022-10-13T18:28:32.676Z,15.18
2022-10-13T18:31:24.620Z,15.13
2022-10-13T18:34:18.779Z,15.09
2022-10-13T18:37:11.802Z,15.06
2022-10-13T18:40:01.464Z,15.09
2022-10-13T18:42:56.627Z,15.02
2022-10-13T18:45:46.144Z,14.97
2022-10-13T18:48:36.701Z,15.03
2022-10-13T18:51:36.331Z,14.90
2022-10-13T18:54:27.777Z,14.87
2022-10-13T18:57:18.652Z,14.71
2022-10-13T19:00:10.804Z,14.82
2022-10-13T19:03:00.624Z,14.77
2022-10-13T19:05:51.339Z,14.84
2022-10-13T19:08:43.184Z,14.87
2022-10-13T19:11:34.167Z,14.80
2022-10-13T19:14:23.614Z,14.60
2022-10-13T19:17:13.577Z,14.63
2022-10-13T19:20:03.026Z,14.76
2022-10-13T19:22:53.437Z,14.73
2022-10-13T19:25:46.133Z,14.66
2022-10-13T19:28:37.005Z,14.61
2022-10-13T19:31:29.518Z,14.56
2022-10-13T19:34:19.218Z,14.41
2022-10-13T19:37:09.184Z,14.47
2022-10-13T19:40:00.418Z,14.44
2022-10-13T19:42:52.564Z,14.13
2022-10-13T19:45:47.254Z,14.44
2022-10-13T19:48:37.838Z,14.37
2022-10-13T19:51:28.643Z,14.32
2022-10-13T19:54:20.521Z,14.04
2022-10-13T19:57:11.318Z,14.32
2022-10-13T20:00:02.244Z,14.38
2022-10-13T20:02:51.807Z,14.40
2022-10-13T20:05:41.993Z,14.37
2022-10-13T20:08:31.191Z,14.17
2022-10-13T20:11:24.167Z,13.98
2022-10-13T20:14:13.834Z,13.97
2022-10-13T20:17:03.954Z,14.15
2022-10-13T20:19:52.854Z,14.10
2022-10-13T20:22:41.964Z,14.01
2022-10-13T20:25:30.689Z,13.99
2022-10-13T20:28:20.208Z,13.98
2022-10-13T20:31:09.037Z,13.94
2022-10-13T20:34:00.198Z,13.93
2022-10-13T20:36:51.063Z,13.93
2022-10-13T20:39:39.698Z,13.76
2022-10-13T20:42:28.403Z,13.84
2022-10-13T20:45:17.177Z,13.74
2022-10-13T20:48:05.844Z,13.84
2022-10-13T20:51:00.148Z,13.35
2022-10-13T20:53:49.596Z,13.84
2022-10-13T20:56:38.273Z,13.53
2022-10-13T20:59:26.888Z,13.72
2022-10-13T21:02:16.859Z,13.70
2022-10-13T21:05:06.049Z,13.67
2022-10-13T21:07:56.099Z,13.84
2022-10-13T21:10:45.097Z,13.71
2022-10-13T21:13:34.136Z,13.75
2022-10-13T21:16:24.547Z,13.71
2022-10-13T21:19:13.214Z,13.54
2022-10-13T21:22:01.833Z,13.39
2022-10-13T21:24:51.891Z,13.72
2022-10-13T21:27:40.648Z,13.75
2022-10-13T21:30:29.752Z,13.69
2022-10-13T21:33:18.377Z,13.72
2022-10-13T21:36:07.857Z,13.65
2022-10-13T21:38:58.505Z,13.68
2022-10-13T21:41:48.546Z,13.75
2022-10-13T21:44:37.157Z,13.75
2022-10-13T21:47:25.829Z,13.77
2022-10-13T21:50:14.409Z,13.73
2022-10-13T21:53:03.107Z,13.64
2022-10-13T21:55:52.036Z,13.56
2022-10-13T21:58:42.078Z,13.68
2022-10-13T22:01:31.178Z,13.61
2022-10-13T22:04:19.806Z,13.72
2022-10-13T22:07:08.518Z,13.40
2022-10-13T22:09:57.169Z,13.71
2022-10-13T22:12:45.855Z,13.72
2022-10-13T22:15:36.729Z,13.76
2022-10-13T22:18:25.387Z,13.72
2022-10-13T22:21:16.540Z,13.72
2022-10-13T22:24:07.758Z,13.76
2022-10-13T22:26:56.543Z,13.65
2022-10-13T22:29:45.189Z,13.92
2022-10-13T22:32:35.394Z,13.99
2022-10-13T22:35:24.013Z,13.80
2022-10-13T22:38:12.658Z,13.90
2022-10-13T22:41:03.504Z,13.77
2022-10-13T22:43:53.503Z,13.91
2022-10-13T22:46:42.620Z,13.86
2022-10-13T22:49:32.695Z,13.83
2022-10-13T22:52:21.278Z,13.94
2022-10-13T22:55:11.095Z,13.96
2022-10-13T22:57:59.732Z,13.97
2022-10-13T23:00:48.367Z,13.89
2022-10-13T23:03:37.592Z,13.39
2022-10-13T23:06:29.674Z,13.91
2022-10-13T23:09:18.285Z,13.89
2022-10-13T23:12:07.074Z,13.86
2022-10-13T23:14:55.674Z,13.81
2022-10-13T23:17:44.318Z,13.66
2022-10-13T23:20:32.979Z,13.70
2022-10-13T23:23:23.023Z,13.81
2022-10-13T23:26:14.218Z,13.70
2022-10-13T23:29:03.278Z,13.60
2022-10-13T23:31:51.896Z,13.49
2022-10-13T23:34:40.503Z,13.49
2022-10-13T23:37:29.159Z,13.37
2022-10-13T23:40:19.405Z,13.35
2022-10-13T23:43:08.014Z,13.31
2022-10-13T23:45:56.619Z,13.24
2022-10-13T23:48:45.268Z,13.24
2022-10-13T23:51:33.920Z,13.22
2022-10-13T23:54:22.498Z,13.15
2022-10-13T23:57:12.639Z,13.11
